createdAt,value
2018-08-07T00:02:25.435Z,2.50
2018-08-07T00:04:53.899Z,2.40
2018-08-07T00:07:22.447Z,2.40
2018-08-07T00:09:50.935Z,2.60
2018-08-07T00:12:19.435Z,2.73
2018-08-07T00:14:47.859Z,2.67
2018-08-07T00:17:16.402Z,2.57
2018-08-07T00:19:44.557Z,3.47
2018-08-07T00:22:12.993Z,3.10
2018-08-07T00:24:41.446Z,2.97
2018-08-07T00:27:09.871Z,2.97
2018-08-07T00:29:38.328Z,3.17
2018-08-07T00:32:06.783Z,2.57
2018-08-07T00:34:34.932Z,3.10
2018-08-07T00:37:03.387Z,2.70
2018-08-07T00:39:31.811Z,2.70
2018-08-07T00:42:00.275Z,3.13
2018-08-07T00:44:28.763Z,3.03
2018-08-07T00:46:57.183Z,3.20
2018-08-07T00:49:25.591Z,3.27
2018-08-07T00:51:54.088Z,3.20
2018-08-07T00:54:22.527Z,2.77
2018-08-07T00:56:50.992Z,3.10
2018-08-07T00:59:19.482Z,3.00
2018-08-07T01:01:47.950Z,3.20
2018-08-07T01:04:16.076Z,3.40
2018-08-07T01:06:44.580Z,2.63
2018-08-07T01:09:13.120Z,3.23
2018-08-07T01:11:41.631Z,2.90
2018-08-07T01:14:10.072Z,3.50
2018-08-07T01:16:38.546Z,3.00
2018-08-07T01:19:06.980Z,3.33
2018-08-07T01:21:35.451Z,3.87
2018-08-07T01:24:03.971Z,3.47
2018-08-07T01:26:32.362Z,3.73
2018-08-07T01:29:00.844Z,3.60
2018-08-07T01:31:28.947Z,3.43
2018-08-07T01:33:57.391Z,3.93
2018-08-07T01:36:25.506Z,3.70
2018-08-07T01:38:54.024Z,3.60
2018-08-07T01:41:22.879Z,3.97
2018-08-07T01:43:51.382Z,3.87
2018-08-07T01:46:19.804Z,3.97
2018-08-07T01:48:47.960Z,3.90
2018-08-07T01:51:16.395Z,3.53
2018-08-07T01:53:44.823Z,4.10
2018-08-07T01:56:13.243Z,3.90
2018-08-07T01:58:41.679Z,3.80
2018-08-07T02:01:10.155Z,3.70
2018-08-07T02:03:38.579Z,4.50
2018-08-07T02:06:07.070Z,4.07
2018-08-07T02:08:35.492Z,3.70
2018-08-07T02:11:03.944Z,3.90
2018-08-07T02:13:32.359Z,3.80
2018-08-07T02:16:00.831Z,4.13
2018-08-07T02:18:29.235Z,3.60
2018-08-07T02:20:57.743Z,3.90
2018-08-07T02:23:26.155Z,3.80
2018-08-07T02:25:54.559Z,4.27
2018-08-07T02:28:23.038Z,4.53
2018-08-07T02:30:51.582Z,4.20
2018-08-07T02:33:19.991Z,4.33
2018-08-07T02:35:48.383Z,4.10
2018-08-07T02:38:16.863Z,4.03
2018-08-07T02:47:45.300Z,4.27
2018-08-07T02:50:17.677Z,4.00
2018-08-07T02:52:46.443Z,4.37
2018-08-07T02:55:14.888Z,4.40
2018-08-07T02:57:44.266Z,4.63
2018-08-07T03:00:15.809Z,3.93
2018-08-07T03:02:44.525Z,4.33
2018-08-07T03:05:12.659Z,4.40
2018-08-07T03:07:41.065Z,4.70
2018-08-07T03:10:09.864Z,4.20
2018-08-07T03:12:38.707Z,4.30
2018-08-07T03:15:09.396Z,3.60
2018-08-07T03:17:38.129Z,3.90
2018-08-07T03:20:07.200Z,4.63
2018-08-07T03:22:35.703Z,4.20
2018-08-07T03:25:04.724Z,3.70
2018-08-07T03:27:33.134Z,4.10
2018-08-07T03:30:01.584Z,4.13
2018-08-07T03:33:33.575Z,4.30
2018-08-07T03:36:02.072Z,4.40
2018-08-07T03:38:30.494Z,4.50
2018-08-07T03:40:58.939Z,3.67
2018-08-07T03:43:27.335Z,4.10
2018-08-07T03:45:55.813Z,4.17
2018-08-07T03:48:24.227Z,4.10
2018-08-07T03:50:52.668Z,3.73
2018-08-07T03:53:21.110Z,3.53
2018-08-07T03:55:49.632Z,3.60
2018-08-07T03:58:18.176Z,4.00
2018-08-07T04:00:48.159Z,4.90
2018-08-07T04:03:17.519Z,4.70
2018-08-07T04:05:46.132Z,4.10
2018-08-07T04:08:14.727Z,5.10
2018-08-07T04:10:43.317Z,4.60
2018-08-07T04:13:11.817Z,4.37
2018-08-07T04:15:40.327Z,4.30
2018-08-07T04:18:08.506Z,5.57
2018-08-07T04:20:36.678Z,4.40
2018-08-07T04:23:04.843Z,5.13
2018-08-07T04:25:33.319Z,4.70
2018-08-07T04:28:01.811Z,4.90
2018-08-07T04:30:29.983Z,4.80
2018-08-07T04:32:58.171Z,4.77
2018-08-07T04:35:26.356Z,4.70
2018-08-07T04:37:54.871Z,4.80
2018-08-07T04:40:23.479Z,4.37
2018-08-07T04:42:51.968Z,4.70
2018-08-07T04:45:20.459Z,4.57
2018-08-07T04:47:49.372Z,5.17
2018-08-07T04:50:17.864Z,4.70
2018-08-07T04:52:46.499Z,5.60
2018-08-07T04:55:15.012Z,5.10
2018-08-07T04:57:43.964Z,5.00
2018-08-07T05:00:14.902Z,5.17
2018-08-07T05:02:44.131Z,5.93
2018-08-07T05:05:12.795Z,6.43
2018-08-07T05:07:41.240Z,5.20
2018-08-07T05:10:11.803Z,4.73
2018-08-07T05:12:40.524Z,5.80
2018-08-07T05:15:09.631Z,4.83
2018-08-07T05:17:38.491Z,4.80
2018-08-07T05:20:07.380Z,4.33
2018-08-07T05:22:36.518Z,5.30
2018-08-07T05:25:05.988Z,5.23
2018-08-07T05:27:34.471Z,4.60
2018-08-07T05:30:03.147Z,4.60
2018-08-07T05:32:31.756Z,4.33
2018-08-07T05:35:00.159Z,4.30
2018-08-07T05:37:28.656Z,4.67
2018-08-07T05:39:57.081Z,4.17
2018-08-07T05:42:25.605Z,4.53
2018-08-07T05:44:53.695Z,4.53
2018-08-07T05:47:22.099Z,4.50
2018-08-07T05:49:50.547Z,4.50
2018-08-07T05:52:19.191Z,4.90
2018-08-07T05:56:11.767Z,5.20
2018-08-07T05:58:40.240Z,10.83
2018-08-07T06:01:08.372Z,4.70
2018-08-07T06:03:36.883Z,4.90
2018-08-07T06:06:05.056Z,4.60
2018-08-07T06:08:33.568Z,4.53
2018-08-07T06:11:01.987Z,5.23
2018-08-07T06:13:30.459Z,5.20
2018-08-07T06:15:58.899Z,5.63
2018-08-07T06:18:27.019Z,4.80
2018-08-07T06:20:55.559Z,4.83
2018-08-07T06:23:23.712Z,4.90
2018-08-07T06:25:52.155Z,5.10
2018-08-07T06:28:20.660Z,5.17
2018-08-07T06:30:49.146Z,4.83
2018-08-07T06:33:17.569Z,4.23
2018-08-07T06:35:46.047Z,5.40
2018-08-07T06:38:14.469Z,4.40
2018-08-07T06:40:42.965Z,5.20
2018-08-07T06:43:11.424Z,4.70
2018-08-07T06:45:39.863Z,4.80
2018-08-07T06:48:08.148Z,4.80
2018-08-07T06:50:36.548Z,4.37
2018-08-07T06:53:05.040Z,4.40
2018-08-07T06:55:33.560Z,4.90
2018-08-07T06:58:02.129Z,4.53
2018-08-07T07:00:30.635Z,4.23
2018-08-07T07:02:59.097Z,4.90
2018-08-07T07:05:27.515Z,4.37
2018-08-07T07:07:55.953Z,4.60
2018-08-07T07:10:24.379Z,4.80
2018-08-07T07:12:52.883Z,4.63
2018-08-07T07:15:21.353Z,4.70
2018-08-07T07:17:49.831Z,4.20
2018-08-07T07:20:19.206Z,4.90
2018-08-07T07:22:48.733Z,4.10
2018-08-07T07:25:17.256Z,4.80
2018-08-07T07:27:45.847Z,3.90
2018-08-07T07:30:16.298Z,4.53
2018-08-07T07:32:46.006Z,3.90
2018-08-07T07:35:14.921Z,4.27
2018-08-07T07:37:43.266Z,8.57
2018-08-07T07:40:11.767Z,11.93
2018-08-07T07:42:40.200Z,5.60
2018-08-07T07:45:11.930Z,6.17
2018-08-07T07:48:36.750Z,4.30
2018-08-07T07:51:05.211Z,4.50
2018-08-07T07:53:33.326Z,5.50
2018-08-07T07:56:01.785Z,5.10
2018-08-07T07:58:30.252Z,5.17
2018-08-07T08:00:58.687Z,4.13
2018-08-07T08:03:27.219Z,4.30
2018-08-07T08:05:55.682Z,3.87
2018-08-07T08:08:24.131Z,3.80
2018-08-07T08:10:52.599Z,4.90
2018-08-07T08:13:21.031Z,4.73
2018-08-07T08:15:49.179Z,5.00
2018-08-07T08:18:17.642Z,4.47
2018-08-07T08:20:46.091Z,4.70
2018-08-07T08:23:14.536Z,4.50
2018-08-07T08:25:43.019Z,4.20
2018-08-07T08:28:11.423Z,4.67
2018-08-07T08:30:39.855Z,4.53
2018-08-07T08:33:08.355Z,4.30
2018-08-07T08:35:36.888Z,4.20
2018-08-07T08:38:05.559Z,4.13
2018-08-07T08:40:34.038Z,3.90
2018-08-07T08:43:02.476Z,4.27
2018-08-07T08:45:30.947Z,4.30
2018-08-07T08:47:59.991Z,4.20
2018-08-07T08:50:28.747Z,5.27
2018-08-07T08:52:57.283Z,8.13
2018-08-07T08:55:25.805Z,6.23
2018-08-07T08:57:54.290Z,4.90
2018-08-07T09:00:24.299Z,4.57
2018-08-07T09:02:53.114Z,3.60
2018-08-07T09:05:21.551Z,3.70
2018-08-07T09:07:50.153Z,4.50
2018-08-07T09:10:21.865Z,13.40
2018-08-07T09:12:50.923Z,14.30
2018-08-07T09:15:19.451Z,5.40
2018-08-07T09:17:48.111Z,3.40
2018-08-07T09:20:23.941Z,3.10
2018-08-07T09:22:52.516Z,3.67
2018-08-07T09:25:21.917Z,3.83
2018-08-07T09:27:50.432Z,3.40
2018-08-07T09:30:21.335Z,3.77
2018-08-07T09:32:50.820Z,3.77
2018-08-07T09:35:20.479Z,3.40
2018-08-07T09:37:49.135Z,3.97
2018-08-07T09:40:19.190Z,3.87
2018-08-07T09:42:48.898Z,4.00
2018-08-07T09:45:19.237Z,3.80
2018-08-07T09:47:48.068Z,3.10
2018-08-07T09:50:17.824Z,3.63
2018-08-07T09:52:46.499Z,3.13
2018-08-07T09:55:15.023Z,5.67
2018-08-07T09:57:43.505Z,3.17
2018-08-07T10:00:20.164Z,3.77
2018-08-07T10:02:50.677Z,3.30
2018-08-07T10:05:19.378Z,3.30
2018-08-07T10:07:48.170Z,5.00
2018-08-07T10:10:16.895Z,3.70
2018-08-07T10:12:45.727Z,3.13
2018-08-07T10:15:14.499Z,3.93
2018-08-07T10:17:42.987Z,3.80
2018-08-07T10:20:12.035Z,3.53
2018-08-07T10:22:41.251Z,3.00
2018-08-07T10:25:11.997Z,3.50
2018-08-07T10:27:42.325Z,3.60
2018-08-07T10:30:12.983Z,3.40
2018-08-07T10:32:42.261Z,3.80
2018-08-07T10:35:11.546Z,3.63
2018-08-07T10:37:40.810Z,3.37
2018-08-07T10:40:11.776Z,3.67
2018-08-07T10:42:40.251Z,3.23
2018-08-07T10:45:11.871Z,3.70
2018-08-07T10:47:40.595Z,3.30
2018-08-07T10:50:11.567Z,3.90
2018-08-07T10:52:40.216Z,3.20
2018-08-07T10:55:09.440Z,3.07
2018-08-07T10:57:39.205Z,4.30
2018-08-07T11:00:19.190Z,3.37
2018-08-07T11:02:48.976Z,3.20
2018-08-07T11:05:17.882Z,3.60
2018-08-07T11:07:46.575Z,3.67
2018-08-07T11:10:15.831Z,2.87
2018-08-07T11:12:43.975Z,3.20
2018-08-07T11:15:23.597Z,2.87
2018-08-07T11:17:53.255Z,3.20
2018-08-07T11:20:22.086Z,12.93
2018-08-07T11:22:51.864Z,19.43
2018-08-07T11:25:21.748Z,3.47
2018-08-07T11:27:50.308Z,4.10
2018-08-07T11:30:21.934Z,5.87
2018-08-07T11:32:50.464Z,3.90
2018-08-07T11:35:19.953Z,2.40
2018-08-07T11:37:49.919Z,3.40
2018-08-07T11:40:19.927Z,3.50
2018-08-07T11:42:49.239Z,3.30
2018-08-07T11:45:19.223Z,4.43
2018-08-07T11:47:47.939Z,2.70
2018-08-07T11:50:18.123Z,2.40
2018-08-07T11:52:46.686Z,3.03
2018-08-07T11:55:16.469Z,2.70
2018-08-07T11:57:44.903Z,3.03
2018-08-07T12:00:17.011Z,3.00
2018-08-07T12:02:45.335Z,3.20
2018-08-07T12:05:14.275Z,3.10
2018-08-07T12:07:42.731Z,2.90
2018-08-07T12:10:12.463Z,3.03
2018-08-07T12:12:41.938Z,3.27
2018-08-07T12:15:13.160Z,3.40
2018-08-07T12:17:41.612Z,2.53
2018-08-07T12:20:10.136Z,3.10
2018-08-07T12:22:38.953Z,3.20
2018-08-07T12:25:08.613Z,2.90
2018-08-07T12:27:37.263Z,3.80
2018-08-07T12:30:16.999Z,2.80
2018-08-07T12:32:45.887Z,3.10
2018-08-07T12:35:14.709Z,3.10
2018-08-07T12:37:43.261Z,2.93
2018-08-07T12:40:16.369Z,2.83
2018-08-07T12:42:46.411Z,4.17
2018-08-07T12:45:14.935Z,2.50
2018-08-07T12:47:44.043Z,2.85
2018-08-07T12:50:13.571Z,3.15
2018-08-07T12:52:42.227Z,2.62
2018-08-07T12:55:12.961Z,3.17
2018-08-07T12:57:41.547Z,3.20
2018-08-07T13:00:20.068Z,3.42
2018-08-07T13:02:48.879Z,2.90
2018-08-07T13:05:17.469Z,2.72
2018-08-07T13:07:45.951Z,2.90
2018-08-07T13:10:18.863Z,2.92
2018-08-07T13:12:47.895Z,3.17
2018-08-07T13:15:18.779Z,2.72
2018-08-07T13:17:47.465Z,3.15
2018-08-07T13:20:15.603Z,3.35
2018-08-07T13:22:44.829Z,2.95
2018-08-07T13:25:14.255Z,3.30
2018-08-07T13:27:42.743Z,3.10
2018-08-07T13:30:15.507Z,3.52
2018-08-07T13:32:43.888Z,4.10
2018-08-07T13:35:12.743Z,3.22
2018-08-07T13:37:42.787Z,3.20
2018-08-07T13:40:13.423Z,3.87
2018-08-07T13:42:41.942Z,3.30
2018-08-07T13:45:12.255Z,3.77
2018-08-07T13:47:40.717Z,2.58
2018-08-07T13:50:13.606Z,2.83
2018-08-07T13:52:42.979Z,3.37
2018-08-07T13:55:13.003Z,2.90
2018-08-07T13:57:41.608Z,2.80
2018-08-07T14:00:11.182Z,3.10
2018-08-07T14:02:39.735Z,2.52
2018-08-07T14:05:08.335Z,2.83
2018-08-07T14:07:37.035Z,2.67
2018-08-07T14:10:06.171Z,3.75
2018-08-07T14:12:34.297Z,2.95
2018-08-07T14:15:02.823Z,3.33
2018-08-07T14:17:30.991Z,6.03
2018-08-07T14:19:59.592Z,2.98
2018-08-07T14:22:28.115Z,3.55
2018-08-07T14:24:56.685Z,6.08
2018-08-07T14:27:25.223Z,2.58
2018-08-07T14:29:53.405Z,2.80
2018-08-07T14:32:22.657Z,3.10
2018-08-07T14:34:51.088Z,2.40
2018-08-07T14:37:19.608Z,2.50
2018-08-07T14:39:48.155Z,2.37
2018-08-07T14:42:16.714Z,2.60
2018-08-07T14:44:45.907Z,2.45
2018-08-07T14:47:15.581Z,2.40
2018-08-07T14:49:44.160Z,2.15
2018-08-07T14:52:12.801Z,2.35
2018-08-07T14:54:41.335Z,2.65
2018-08-07T14:57:09.900Z,2.25
2018-08-07T14:59:38.670Z,2.20
2018-08-07T15:02:07.121Z,2.52
2018-08-07T15:04:35.633Z,2.02
2018-08-07T15:07:03.824Z,2.60
2018-08-07T15:09:32.424Z,2.40
2018-08-07T15:12:01.005Z,2.60
2018-08-07T15:14:29.968Z,2.33
2018-08-07T15:16:58.269Z,2.77
2018-08-07T15:19:27.610Z,2.47
2018-08-07T15:21:56.058Z,2.52
2018-08-07T15:24:24.581Z,2.30
2018-08-07T15:26:53.248Z,3.00
2018-08-07T15:29:21.801Z,2.37
2018-08-07T15:31:50.219Z,3.40
2018-08-07T15:34:18.778Z,2.75
2018-08-07T15:36:47.532Z,2.72
2018-08-07T15:39:15.707Z,2.80
2018-08-07T15:41:44.180Z,2.75
2018-08-07T15:44:12.756Z,2.57
2018-08-07T15:46:41.287Z,2.90
2018-08-07T15:49:09.898Z,2.80
2018-08-07T15:51:38.447Z,2.67
2018-08-07T15:54:06.941Z,3.13
2018-08-07T15:56:35.491Z,3.20
2018-08-07T15:59:03.678Z,2.90
2018-08-07T16:01:32.451Z,2.60
2018-08-07T16:04:00.654Z,2.30
2018-08-07T16:06:29.141Z,2.30
2018-08-07T16:08:57.788Z,2.13
2018-08-07T16:11:26.369Z,2.80
2018-08-07T16:13:54.904Z,3.20
2018-08-07T16:16:23.463Z,3.13
2018-08-07T16:18:51.991Z,3.57
2018-08-07T16:21:20.519Z,3.53
2018-08-07T16:23:48.674Z,3.43
2018-08-07T16:26:18.078Z,3.10
2018-08-07T16:28:46.991Z,3.17
2018-08-07T16:31:16.222Z,3.33
2018-08-07T16:33:44.978Z,3.20
2018-08-07T16:36:13.135Z,3.60
2018-08-07T16:38:41.689Z,2.70
2018-08-07T16:41:10.258Z,3.40
2018-08-07T16:43:38.787Z,4.10
2018-08-07T16:46:07.287Z,3.27
2018-08-07T16:48:35.455Z,3.63
2018-08-07T16:51:03.786Z,3.30
2018-08-07T16:53:32.307Z,3.10
2018-08-07T16:56:00.923Z,4.40
2018-08-07T16:58:29.546Z,3.30
2018-08-07T17:00:58.102Z,3.40
2018-08-07T17:03:26.731Z,2.80
2018-08-07T17:05:55.183Z,3.20
2018-08-07T17:08:23.763Z,3.90
2018-08-07T17:10:52.325Z,3.40
2018-08-07T17:13:20.919Z,3.40
2018-08-07T17:15:49.517Z,3.17
2018-08-07T17:18:18.228Z,3.73
2018-08-07T17:20:46.833Z,3.30
2018-08-07T17:23:15.296Z,3.37
2018-08-07T17:25:44.303Z,3.83
2018-08-07T17:28:12.787Z,3.70
2018-08-07T17:30:41.308Z,3.50
2018-08-07T17:33:09.767Z,3.43
2018-08-07T17:35:37.925Z,3.47
2018-08-07T17:38:06.917Z,3.00
2018-08-07T17:40:35.396Z,3.07
2018-08-07T17:43:03.963Z,3.53
2018-08-07T17:45:32.535Z,3.43
2018-08-07T17:48:02.095Z,3.37
2018-08-07T17:50:30.294Z,3.23
2018-08-07T17:53:00.014Z,3.57
2018-08-07T17:55:28.652Z,3.50
2018-08-07T17:57:58.581Z,4.03
2018-08-07T18:00:27.110Z,3.60
2018-08-07T18:02:55.646Z,3.47
2018-08-07T18:05:24.263Z,3.37
2018-08-07T18:07:54.633Z,3.50
2018-08-07T18:10:24.194Z,3.80
2018-08-07T18:12:52.867Z,4.03
2018-08-07T18:15:22.519Z,3.23
2018-08-07T18:17:51.745Z,3.70
2018-08-07T18:20:22.575Z,3.23
2018-08-07T18:22:51.114Z,3.93
2018-08-07T18:25:19.659Z,3.73
2018-08-07T18:27:48.216Z,3.30
2018-08-07T18:30:19.132Z,4.67
2018-08-07T18:32:47.778Z,3.23
2018-08-07T18:35:18.631Z,3.90
2018-08-07T18:37:47.567Z,3.37
2018-08-07T18:40:16.071Z,3.40
2018-08-07T18:42:44.615Z,3.53
2018-08-07T18:45:13.887Z,3.60
2018-08-07T18:47:43.202Z,4.23
2018-08-07T18:50:14.389Z,3.90
2018-08-07T18:52:42.872Z,4.00
2018-08-07T18:55:13.111Z,5.27
2018-08-07T18:57:42.595Z,4.13
2018-08-07T19:00:13.836Z,3.93
2018-08-07T19:02:42.539Z,3.93
2018-08-07T19:05:13.175Z,4.80
2018-08-07T19:07:41.706Z,4.07
2018-08-07T19:10:11.294Z,3.87
2018-08-07T19:12:39.904Z,4.50
2018-08-07T19:15:09.836Z,4.00
2018-08-07T19:17:38.310Z,4.10
2018-08-07T19:20:07.328Z,4.50
2018-08-07T19:22:35.777Z,4.70
2018-08-07T19:25:05.146Z,5.20
2018-08-07T19:27:33.291Z,13.37
2018-08-07T19:30:01.790Z,9.03
2018-08-07T19:32:30.347Z,12.43
2018-08-07T19:34:58.756Z,12.20
2018-08-07T19:37:26.999Z,16.67
2018-08-07T19:39:55.516Z,17.37
2018-08-07T19:42:23.811Z,20.20
2018-08-07T19:44:52.311Z,17.57
2018-08-07T19:47:21.171Z,15.80
2018-08-07T19:49:49.337Z,13.20
2018-08-07T19:52:17.799Z,8.67
2018-08-07T19:54:46.499Z,12.27
2018-08-07T19:57:15.075Z,12.67
2018-08-07T19:59:43.636Z,10.63
2018-08-07T20:02:12.155Z,7.90
2018-08-07T20:04:40.682Z,11.87
2018-08-07T20:07:09.263Z,14.37
2018-08-07T20:09:37.897Z,13.50
2018-08-07T20:12:06.684Z,13.97
2018-08-07T20:14:35.191Z,14.70
2018-08-07T20:17:03.568Z,13.70
2018-08-07T20:19:31.821Z,12.63
2018-08-07T20:22:00.358Z,10.83
2018-08-07T20:24:28.911Z,10.23
2018-08-07T20:26:57.378Z,9.70
2018-08-07T20:29:25.848Z,9.83
2018-08-07T20:31:54.399Z,9.40
2018-08-07T20:34:22.937Z,8.80
2018-08-07T20:36:51.116Z,8.20
2018-08-07T20:39:19.302Z,9.37
2018-08-07T20:41:47.763Z,7.17
2018-08-07T20:44:16.304Z,7.13
2018-08-07T20:46:44.894Z,5.93
2018-08-07T20:49:13.422Z,5.03
2018-08-07T20:51:41.562Z,5.30
2018-08-07T20:54:13.043Z,5.80
2018-08-07T20:56:41.499Z,5.83
2018-08-07T20:59:10.007Z,5.97
2018-08-07T21:01:38.172Z,5.90
2018-08-07T21:04:06.701Z,6.23
2018-08-07T21:06:35.247Z,5.87
2018-08-07T21:09:05.270Z,5.77
2018-08-07T21:11:33.741Z,5.60
2018-08-07T21:14:02.249Z,13.53
2018-08-07T21:16:30.727Z,6.80
2018-08-07T21:18:58.892Z,5.40
2018-08-07T21:21:27.418Z,5.83
2018-08-07T21:23:55.920Z,5.63
2018-08-07T21:26:24.508Z,5.17
2018-08-07T21:28:52.973Z,5.00
2018-08-07T21:31:21.470Z,5.37
2018-08-07T21:33:49.990Z,5.53
2018-08-07T21:36:18.267Z,5.40
2018-08-07T21:38:46.453Z,6.17
2018-08-07T21:41:14.900Z,5.00
2018-08-07T21:43:43.382Z,4.90
2018-08-07T21:46:11.876Z,5.20
2018-08-07T21:48:40.380Z,4.90
2018-08-07T21:52:11.917Z,5.17
2018-08-07T21:54:40.397Z,4.50
2018-08-07T21:57:08.879Z,4.50
2018-08-07T21:59:37.391Z,4.87
2018-08-07T22:02:05.903Z,5.03
2018-08-07T22:04:34.460Z,4.87
2018-08-07T22:07:02.970Z,4.77
2018-08-07T22:09:31.523Z,5.73
2018-08-07T22:11:59.968Z,5.50
2018-08-07T22:14:28.515Z,5.23
2018-08-07T22:16:57.239Z,5.47
2018-08-07T22:19:25.728Z,25.80
2018-08-07T22:21:54.205Z,5.37
2018-08-07T22:24:22.675Z,5.27
2018-08-07T22:26:51.170Z,7.03
2018-08-07T22:29:19.660Z,5.27
2018-08-07T22:31:48.103Z,5.17
2018-08-07T22:34:16.603Z,5.10
2018-08-07T22:36:45.159Z,5.43
2018-08-07T22:39:13.634Z,5.30
2018-08-07T22:41:42.152Z,5.50
2018-08-07T22:44:10.708Z,5.30
2018-08-07T22:46:39.218Z,5.37
2018-08-07T22:49:07.714Z,5.07
2018-08-07T22:51:36.271Z,5.23
2018-08-07T22:54:04.815Z,5.67
2018-08-07T22:56:33.063Z,5.77
2018-08-07T22:59:01.348Z,4.90
2018-08-07T23:01:29.492Z,5.27
2018-08-07T23:03:58.022Z,5.63
2018-08-07T23:06:26.592Z,6.23
2018-08-07T23:08:54.745Z,5.10
2018-08-07T23:11:23.267Z,5.80
2018-08-07T23:13:51.824Z,6.70
2018-08-07T23:16:19.986Z,5.63
2018-08-07T23:18:48.474Z,5.67
2018-08-07T23:21:16.939Z,5.67
2018-08-07T23:23:45.412Z,5.73
2018-08-07T23:26:13.923Z,5.60
2018-08-07T23:28:42.351Z,5.80
2018-08-07T23:31:10.864Z,5.73
2018-08-07T23:33:39.342Z,6.53
2018-08-07T23:36:07.947Z,5.93
2018-08-07T23:38:36.391Z,6.20
2018-08-07T23:41:05.087Z,5.80
2018-08-07T23:43:33.562Z,5.83
2018-08-07T23:46:02.114Z,5.77
2018-08-07T23:48:30.598Z,5.50
2018-08-07T23:50:59.078Z,5.80
2018-08-07T23:53:27.531Z,6.47
2018-08-07T23:55:55.686Z,5.50
2018-08-07T23:58:24.207Z,6.20
